Time;durP1;ratioP1;P1;durP2;ratioP2;P2;SDS_P1;SDS_P2;PMS_P1;PMS_P2;Temp;Humidity;BMP_temperature;BMP_pressure;BME280_temperature;BME280_humidity;BME280_pressure;Samples;Min_cycle;Max_cycle;Signal;HPM_P1;HPM_P2
2023/09/08 00:01:57;;;;;;;7.85;6.93;;;20.20;99.90;;;;;;5035796;28;20037;-51
2023/09/08 00:04:24;;;;;;;11.93;8.85;;;20.20;99.90;;;;;;5035321;28;20110;-56
2023/09/08 00:06:50;;;;;;;11.68;9.13;;;20.10;99.90;;;;;;5035081;28;20048;-55
2023/09/08 00:09:17;;;;;;;12.18;7.38;;;20.10;99.90;;;;;;5035073;28;20053;-58
2023/09/08 00:11:44;;;;;;;9.90;6.70;;;20.10;99.90;;;;;;5035185;28;20503;-53
2023/09/08 00:14:11;;;;;;;6.68;5.25;;;20.00;99.90;;;;;;5034029;28;20067;-60
2023/09/08 00:16:39;;;;;;;5.85;4.95;;;20.00;99.90;;;;;;5034500;28;20481;-59
2023/09/08 00:19:06;;;;;;;5.30;4.65;;;19.90;99.90;;;;;;5034797;28;20044;-53
2023/09/08 00:21:32;;;;;;;7.38;4.70;;;19.90;99.90;;;;;;5034224;28;20531;-58
2023/09/08 00:24:00;;;;;;;6.38;4.30;;;19.90;99.90;;;;;;5034964;28;20056;-59
2023/09/08 00:26:27;;;;;;;7.18;4.65;;;19.80;99.90;;;;;;5035363;28;20045;-57
2023/09/08 00:28:54;;;;;;;8.85;5.13;;;19.80;99.90;;;;;;5033753;28;20038;-55
2023/09/08 00:31:21;;;;;;;5.93;4.80;;;19.80;99.90;;;;;;5034038;28;20053;-56
2023/09/08 00:33:48;;;;;;;8.80;6.07;;;19.80;99.90;;;;;;5034817;28;20428;-57
2023/09/08 00:36:15;;;;;;;10.15;6.43;;;19.80;99.90;;;;;;5034980;28;20365;-58
2023/09/08 00:38:42;;;;;;;7.43;6.32;;;19.80;99.90;;;;;;5033570;28;20038;-52
2023/09/08 00:41:09;;;;;;;9.07;6.57;;;19.80;99.90;;;;;;5034919;28;20073;-56
2023/09/08 00:43:35;;;;;;;6.90;6.20;;;19.80;99.90;;;;;;5033579;28;20539;-56
2023/09/08 00:46:02;;;;;;;7.45;6.45;;;19.80;99.90;;;;;;5034965;28;20049;-57
2023/09/08 00:48:29;;;;;;;9.60;6.07;;;19.70;99.90;;;;;;5034669;28;20473;-59
2023/09/08 00:50:56;;;;;;;6.65;5.53;;;19.70;99.90;;;;;;5033185;28;20041;-57
2023/09/08 00:53:23;;;;;;;8.82;5.97;;;19.70;99.90;;;;;;5034938;28;20045;-57
2023/09/08 00:55:50;;;;;;;5.47;4.85;;;19.70;99.90;;;;;;5032698;28;20045;-58
2023/09/08 00:58:17;;;;;;;6.68;5.15;;;19.70;99.90;;;;;;5032534;28;20048;-57
2023/09/08 01:00:44;;;;;;;8.38;5.60;;;19.70;99.90;;;;;;5033020;28;20046;-54
2023/09/08 01:03:11;;;;;;;7.90;5.70;;;19.70;99.90;;;;;;5033970;28;20038;-52
2023/09/08 01:05:38;;;;;;;11.35;5.68;;;19.60;99.90;;;;;;5034119;28;20084;-59
2023/09/08 01:08:06;;;;;;;7.75;5.78;;;19.60;99.90;;;;;;5032728;28;20095;-57
2023/09/08 01:10:33;;;;;;;7.15;5.35;;;19.60;99.90;;;;;;5034048;28;20041;-61
2023/09/08 01:13:00;;;;;;;7.95;5.30;;;19.60;99.90;;;;;;5032956;28;20060;-56
2023/09/08 01:15:27;;;;;;;7.50;4.90;;;19.60;99.90;;;;;;5032660;28;20109;-57
2023/09/08 01:17:54;;;;;;;8.73;5.40;;;19.60;99.90;;;;;;5033842;28;20053;-56
2023/09/08 01:20:21;;;;;;;7.30;5.30;;;19.60;99.90;;;;;;5034066;28;20132;-57
2023/09/08 01:22:48;;;;;;;7.22;5.50;;;19.60;99.90;;;;;;5033621;28;20037;-59
2023/09/08 01:25:15;;;;;;;8.32;5.43;;;19.60;99.90;;;;;;5032656;28;20424;-60
2023/09/08 01:27:41;;;;;;;8.88;5.97;;;19.60;99.90;;;;;;5032109;28;20038;-58
2023/09/08 01:30:08;;;;;;;9.07;5.40;;;19.50;99.90;;;;;;5033974;28;20476;-56
2023/09/08 01:32:35;;;;;;;7.45;5.20;;;19.50;99.90;;;;;;5033807;28;20472;-59
2023/09/08 01:35:02;;;;;;;6.85;5.15;;;19.50;99.90;;;;;;5032426;28;20049;-55
2023/09/08 01:37:29;;;;;;;6.30;5.05;;;19.50;99.90;;;;;;5033316;28;20037;-56
2023/09/08 01:39:56;;;;;;;5.55;4.80;;;19.50;99.90;;;;;;5033862;28;20059;-55
2023/09/08 01:42:22;;;;;;;7.35;5.40;;;19.50;99.90;;;;;;5032146;28;20037;-57
2023/09/08 01:44:49;;;;;;;8.13;4.88;;;19.40;99.90;;;;;;5033366;28;20041;-59
2023/09/08 01:47:16;;;;;;;6.85;4.60;;;19.50;99.90;;;;;;5033120;28;20049;-56
2023/09/08 01:49:43;;;;;;;8.18;5.63;;;19.50;99.90;;;;;;5032172;28;20136;-57
2023/09/08 01:52:10;;;;;;;8.98;5.05;;;19.40;99.90;;;;;;5032471;28;20049;-57
2023/09/08 01:54:37;;;;;;;7.65;4.70;;;19.50;99.90;;;;;;5033438;28;20175;-58
2023/09/08 01:57:03;;;;;;;7.43;4.47;;;19.50;99.90;;;;;;5031581;28;20151;-57
2023/09/08 01:59:30;;;;;;;7.03;4.78;;;19.50;99.90;;;;;;5032581;28;20124;-58
2023/09/08 02:01:57;;;;;;;9.23;5.20;;;19.40;99.90;;;;;;5031686;28;20128;-57
2023/09/08 02:04:24;;;;;;;7.85;4.85;;;19.50;99.90;;;;;;5031650;28;20503;-59
2023/09/08 02:06:51;;;;;;;7.28;4.78;;;19.50;99.90;;;;;;5032772;28;20064;-56
2023/09/08 02:09:19;;;;;;;6.10;5.03;;;19.50;99.90;;;;;;5031648;28;20049;-58
2023/09/08 02:11:45;;;;;;;6.93;4.95;;;19.50;99.90;;;;;;5031663;28;20041;-56
2023/09/08 02:14:13;;;;;;;6.28;4.90;;;19.50;99.90;;;;;;5031743;28;20046;-53
2023/09/08 02:16:40;;;;;;;5.65;4.88;;;19.50;99.90;;;;;;5032979;28;20037;-58
2023/09/08 02:19:07;;;;;;;8.45;4.70;;;19.50;99.90;;;;;;5033189;28;20037;-59
2023/09/08 02:21:34;;;;;;;7.38;4.93;;;19.50;99.90;;;;;;5033495;28;20042;-54
2023/09/08 02:24:00;;;;;;;7.32;4.80;;;19.50;99.90;;;;;;5032943;28;20040;-54
2023/09/08 02:26:29;;;;;;;8.02;5.05;;;19.50;99.90;;;;;;5031810;28;20045;-56
2023/09/08 02:28:56;;;;;;;7.63;5.25;;;19.50;99.90;;;;;;5032106;28;20046;-56
2023/09/08 02:31:24;;;;;;;7.85;5.10;;;19.50;99.90;;;;;;5014666;28;20096;-57
2023/09/08 02:33:50;;;;;;;6.85;5.22;;;19.50;99.90;;;;;;5030556;28;20046;-57
2023/09/08 02:36:17;;;;;;;5.38;4.63;;;19.50;99.90;;;;;;5030734;28;20412;-59
2023/09/08 02:38:44;;;;;;;6.32;4.85;;;19.50;99.90;;;;;;5031636;28;20069;-56
2023/09/08 02:41:11;;;;;;;5.40;4.55;;;19.50;99.90;;;;;;5030857;28;20393;-58
2023/09/08 02:43:39;;;;;;;6.55;5.60;;;19.50;99.90;;;;;;5032755;28;20046;-58
2023/09/08 02:46:09;;;;;;;6.50;4.82;;;19.50;99.90;;;;;;5035336;28;20395;-54
2023/09/08 02:48:36;;;;;;;8.05;5.40;;;19.50;99.90;;;;;;5035858;28;20442;-55
2023/09/08 02:51:03;;;;;;;9.18;5.20;;;19.50;99.90;;;;;;5037526;28;20064;-57
2023/09/08 02:53:30;;;;;;;5.50;4.90;;;19.40;99.90;;;;;;5036866;28;20041;-59
2023/09/08 02:55:57;;;;;;;9.25;4.80;;;19.40;99.90;;;;;;5036850;28;20384;-60
2023/09/08 02:58:23;;;;;;;6.57;5.07;;;19.40;99.90;;;;;;5034495;28;20152;-55
2023/09/08 03:00:53;;;;;;;5.93;5.15;;;19.40;99.90;;;;;;5036383;28;20043;-55
2023/09/08 03:03:20;;;;;;;5.43;4.93;;;19.30;99.90;;;;;;5035300;28;20095;-56
2023/09/08 03:05:48;;;;;;;6.82;5.00;;;19.30;99.90;;;;;;5035340;28;20041;-55
2023/09/08 03:08:15;;;;;;;5.65;5.05;;;19.30;99.90;;;;;;5036381;28;20049;-57
2023/09/08 03:10:42;;;;;;;7.35;5.03;;;19.40;99.90;;;;;;5035346;28;20045;-52
2023/09/08 03:13:08;;;;;;;6.03;5.30;;;19.30;99.90;;;;;;5035214;28;20072;-58
2023/09/08 03:15:36;;;;;;;7.75;4.68;;;19.30;99.90;;;;;;5036201;28;20432;-56
2023/09/08 03:18:03;;;;;;;5.85;4.72;;;19.30;99.90;;;;;;5035328;28;20127;-58
2023/09/08 03:20:29;;;;;;;9.20;5.18;;;19.30;99.90;;;;;;5035065;28;20072;-57
2023/09/08 03:22:56;;;;;;;6.85;5.13;;;19.30;99.90;;;;;;5036563;28;20061;-59
2023/09/08 03:25:23;;;;;;;5.18;4.50;;;19.30;99.90;;;;;;5036074;28;20044;-61
2023/09/08 03:27:50;;;;;;;6.53;4.30;;;19.20;99.90;;;;;;5036422;28;20037;-58
2023/09/08 03:30:16;;;;;;;5.97;4.80;;;19.20;99.90;;;;;;5036325;28;20392;-58
2023/09/08 03:32:43;;;;;;;6.07;4.35;;;19.20;99.90;;;;;;5036152;28;20045;-58
2023/09/08 03:35:10;;;;;;;6.10;4.80;;;19.20;99.90;;;;;;5034608;28;20049;-61
2023/09/08 03:37:38;;;;;;;6.40;4.68;;;19.10;99.90;;;;;;5034823;28;20128;-54
2023/09/08 03:40:06;;;;;;;6.03;4.45;;;19.10;99.90;;;;;;5034642;28;20384;-57
2023/09/08 03:42:34;;;;;;;5.40;4.78;;;19.10;99.90;;;;;;5034860;28;20049;-58
2023/09/08 03:45:02;;;;;;;5.10;4.30;;;19.10;99.90;;;;;;5035110;28;20034;-56
2023/09/08 03:47:29;;;;;;;7.60;4.75;;;19.10;99.90;;;;;;5034296;28;20522;-57
2023/09/08 03:49:56;;;;;;;10.60;4.93;;;19.10;99.90;;;;;;5034234;28;20421;-56
2023/09/08 03:52:24;;;;;;;6.20;4.50;;;19.10;99.90;;;;;;5034480;28;20169;-54
2023/09/08 03:54:50;;;;;;;5.90;4.70;;;19.10;99.90;;;;;;5035341;28;20385;-58
2023/09/08 03:57:17;;;;;;;5.82;4.28;;;19.10;99.90;;;;;;5035227;28;20072;-55
2023/09/08 03:59:44;;;;;;;6.78;4.70;;;19.10;99.90;;;;;;5033895;28;20048;-57
2023/09/08 04:02:11;;;;;;;5.55;4.43;;;19.10;99.90;;;;;;5034145;28;20481;-59
2023/09/08 04:04:38;;;;;;;6.20;4.25;;;19.10;99.90;;;;;;5034522;28;20042;-59
2023/09/08 04:07:06;;;;;;;7.28;4.50;;;19.10;99.90;;;;;;5034180;28;20057;-52
2023/09/08 04:09:33;;;;;;;4.82;4.30;;;19.10;99.90;;;;;;5033985;28;20057;-60
2023/09/08 04:12:00;;;;;;;6.68;4.03;;;19.10;99.90;;;;;;5034026;28;20051;-57
2023/09/08 04:14:30;;;;;;;5.78;4.72;;;19.00;99.90;;;;;;5033722;28;20049;-58
2023/09/08 04:16:57;;;;;;;6.93;4.35;;;19.00;99.90;;;;;;5035140;28;20041;-58
2023/09/08 04:19:24;;;;;;;5.90;4.63;;;19.10;99.90;;;;;;5033770;28;20121;-55
2023/09/08 04:21:51;;;;;;;5.90;3.97;;;19.00;99.90;;;;;;5033942;28;20045;-56
2023/09/08 04:24:17;;;;;;;5.13;4.35;;;19.00;99.90;;;;;;5034824;28;20037;-58
2023/09/08 04:26:44;;;;;;;7.43;4.30;;;19.00;99.90;;;;;;5034836;28;20044;-57
2023/09/08 04:29:12;;;;;;;4.82;4.32;;;19.00;99.90;;;;;;5034679;28;20447;-57
2023/09/08 04:31:39;;;;;;;5.32;4.32;;;19.00;99.90;;;;;;5033422;28;20046;-54
2023/09/08 04:34:06;;;;;;;5.57;3.97;;;19.00;99.90;;;;;;5033735;28;20050;-56
2023/09/08 04:36:34;;;;;;;5.50;3.97;;;19.00;99.90;;;;;;5033613;28;20077;-57
2023/09/08 04:39:01;;;;;;;5.72;3.85;;;19.00;99.90;;;;;;5033372;28;20049;-57
2023/09/08 04:41:27;;;;;;;6.07;4.25;;;18.90;99.90;;;;;;5034802;28;20068;-57
2023/09/08 04:43:57;;;;;;;6.00;3.97;;;18.90;99.90;;;;;;5033019;28;20515;-59
2023/09/08 04:46:24;;;;;;;7.00;4.53;;;18.90;99.90;;;;;;5033305;28;20136;-57
2023/09/08 04:48:51;;;;;;;6.05;4.30;;;18.80;99.90;;;;;;5033535;28;20054;-58
2023/09/08 04:51:20;;;;;;;5.07;3.92;;;18.80;99.90;;;;;;5033486;28;20128;-56
2023/09/08 04:53:47;;;;;;;4.93;4.00;;;18.80;99.90;;;;;;5033458;28;20045;-58
2023/09/08 04:56:14;;;;;;;5.93;4.15;;;18.80;99.90;;;;;;5033211;28;20052;-56
2023/09/08 04:58:42;;;;;;;5.95;4.20;;;18.80;99.90;;;;;;5032923;28;20060;-62
2023/09/08 05:01:08;;;;;;;8.82;4.30;;;18.80;99.90;;;;;;5032654;28;20072;-56
2023/09/08 05:03:35;;;;;;;5.95;4.28;;;18.70;99.90;;;;;;5033280;28;20465;-58
2023/09/08 05:06:03;;;;;;;5.50;4.22;;;18.70;99.90;;;;;;5032448;28;20049;-57
2023/09/08 05:08:30;;;;;;;5.40;4.00;;;18.80;99.90;;;;;;5033301;28;20136;-59
2023/09/08 05:10:57;;;;;;;4.88;4.40;;;18.80;99.90;;;;;;5033982;28;20469;-59
2023/09/08 05:13:26;;;;;;;6.18;4.20;;;18.80;99.90;;;;;;5032690;28;20128;-54
2023/09/08 05:16:10;;;;;;;5.57;4.28;;;18.80;99.90;;;;;;5032735;28;20053;-57
2023/09/08 05:18:43;;;;;;;6.38;3.92;;;18.80;99.90;;;;;;5032718;28;20137;-59
2023/09/08 05:21:10;;;;;;;4.72;4.20;;;18.80;99.90;;;;;;5032917;28;20350;-59
2023/09/08 05:23:37;;;;;;;7.20;4.40;;;18.80;99.90;;;;;;5032592;28;20037;-56
2023/09/08 05:26:04;;;;;;;7.47;4.13;;;18.80;99.90;;;;;;5032728;28;20050;-62
2023/09/08 05:28:32;;;;;;;5.20;4.20;;;18.80;99.90;;;;;;5032213;28;20099;-57
2023/09/08 05:31:04;;;;;;;4.55;4.05;;;18.80;99.90;;;;;;5032718;28;20111;-59
2023/09/08 05:33:31;;;;;;;6.32;4.15;;;18.80;99.90;;;;;;5032787;28;20060;-55
2023/09/08 05:35:58;;;;;;;8.65;4.68;;;18.80;99.90;;;;;;5032797;28;20059;-55
2023/09/08 05:38:27;;;;;;;7.32;4.15;;;18.90;99.90;;;;;;5032141;28;20038;-54
2023/09/08 05:40:54;;;;;;;5.20;4.13;;;18.90;99.90;;;;;;5032332;28;20042;-51
2023/09/08 05:43:21;;;;;;;6.10;4.57;;;18.90;99.90;;;;;;5032130;28;20069;-57
2023/09/08 05:45:48;;;;;;;7.22;4.05;;;19.00;99.90;;;;;;5032040;28;20054;-57
2023/09/08 05:48:15;;;;;;;6.57;4.18;;;19.00;99.90;;;;;;5031986;28;20140;-59
2023/09/08 05:50:42;;;;;;;6.15;4.05;;;19.00;99.90;;;;;;5031739;28;20076;-55
2023/09/08 05:53:11;;;;;;;7.60;4.10;;;19.00;99.90;;;;;;5032103;28;20171;-58
2023/09/08 05:55:37;;;;;;;8.30;4.40;;;19.10;99.90;;;;;;5032351;28;20049;-61
2023/09/08 05:58:07;;;;;;;7.47;4.35;;;19.10;99.90;;;;;;5032955;28;20053;-58
2023/09/08 06:00:34;;;;;;;8.07;4.45;;;19.20;99.90;;;;;;5032721;28;20492;-56
2023/09/08 06:03:02;;;;;;;4.45;3.95;;;19.20;99.90;;;;;;5032195;28;20037;-53
2023/09/08 06:05:30;;;;;;;6.57;4.32;;;19.20;99.90;;;;;;5031854;28;20065;-55
2023/09/08 06:07:56;;;;;;;5.55;3.85;;;19.30;99.90;;;;;;5031594;28;20037;-54
2023/09/08 06:10:34;;;;;;;5.68;4.13;;;19.30;99.90;;;;;;5032238;28;20053;-58
2023/09/08 06:13:01;;;;;;;6.13;4.15;;;19.30;99.90;;;;;;5032136;28;20095;-56
2023/09/08 06:15:29;;;;;;;5.82;3.72;;;19.40;99.90;;;;;;5031836;28;20504;-57
2023/09/08 06:17:56;;;;;;;5.38;3.85;;;19.50;99.90;;;;;;5031866;28;20053;-58
2023/09/08 06:20:24;;;;;;;6.30;4.28;;;19.50;99.90;;;;;;5032966;28;20037;-56
2023/09/08 06:22:52;;;;;;;8.68;3.95;;;19.60;99.90;;;;;;5033212;28;20496;-54
2023/09/08 06:25:19;;;;;;;6.45;4.28;;;19.60;99.90;;;;;;5031686;28;20049;-56
2023/09/08 06:27:47;;;;;;;4.93;3.72;;;19.60;99.90;;;;;;5031171;28;20056;-56
2023/09/08 06:30:16;;;;;;;5.43;3.97;;;19.70;99.90;;;;;;5032755;28;20072;-51
2023/09/08 06:32:42;;;;;;;5.70;4.50;;;19.80;99.90;;;;;;5032562;28;20049;-58
2023/09/08 06:35:10;;;;;;;6.22;4.60;;;19.80;99.90;;;;;;5031595;28;20095;-58
2023/09/08 06:37:37;;;;;;;6.63;4.57;;;19.90;99.90;;;;;;5031372;28;20045;-54
2023/09/08 06:40:05;;;;;;;7.45;4.15;;;19.90;99.90;;;;;;5031483;28;20115;-53
2023/09/08 06:42:33;;;;;;;6.47;4.40;;;20.00;99.90;;;;;;5031190;28;20058;-57
2023/09/08 06:45:09;;;;;;;5.82;4.38;;;20.00;99.90;;;;;;5031269;28;20041;-56
2023/09/08 06:47:37;;;;;;;6.63;4.60;;;20.10;99.90;;;;;;5031451;28;20049;-58
2023/09/08 06:50:04;;;;;;;5.60;4.32;;;20.10;99.90;;;;;;5032451;28;20075;-59
2023/09/08 06:52:31;;;;;;;5.82;4.15;;;20.10;99.90;;;;;;5031606;28;20045;-56
2023/09/08 06:54:57;;;;;;;7.93;4.35;;;20.20;99.90;;;;;;5032617;28;20091;-52
2023/09/08 06:57:24;;;;;;;6.72;4.28;;;20.30;99.90;;;;;;5030708;28;20077;-57
2023/09/08 06:59:52;;;;;;;6.75;4.40;;;20.40;99.90;;;;;;5031256;28;20064;-56
2023/09/08 07:02:20;;;;;;;6.63;4.25;;;20.50;99.90;;;;;;5030863;28;20511;-51
2023/09/08 07:04:47;;;;;;;8.60;4.63;;;20.60;99.90;;;;;;5031437;28;20137;-57
2023/09/08 07:07:14;;;;;;;6.30;4.60;;;20.70;99.90;;;;;;5031038;28;20578;-56
2023/09/08 07:09:41;;;;;;;6.70;4.30;;;20.80;99.90;;;;;;5031030;28;20141;-56
2023/09/08 07:12:08;;;;;;;9.65;4.22;;;20.80;99.90;;;;;;5031020;28;20077;-57
2023/09/08 07:14:35;;;;;;;9.20;3.78;;;20.90;99.90;;;;;;5031215;28;20050;-52
2023/09/08 07:17:02;;;;;;;10.68;4.32;;;21.00;99.90;;;;;;5031069;28;20493;-60
2023/09/08 07:19:29;;;;;;;9.60;4.10;;;21.00;99.90;;;;;;5030890;28;20037;-54
2023/09/08 07:21:58;;;;;;;5.88;3.70;;;21.10;99.90;;;;;;5031081;28;20042;-54
2023/09/08 07:24:25;;;;;;;10.73;4.55;;;21.10;99.90;;;;;;5030896;28;20053;-52
2023/09/08 07:26:52;;;;;;;9.30;3.78;;;21.20;99.90;;;;;;5030742;28;20048;-57
2023/09/08 07:29:18;;;;;;;9.90;3.65;;;21.20;99.90;;;;;;5031549;28;20042;-57
2023/09/08 07:31:46;;;;;;;7.20;3.88;;;21.20;99.90;;;;;;5034971;28;20041;-54
2023/09/08 07:34:12;;;;;;;7.90;4.22;;;21.30;99.90;;;;;;5036190;28;20056;-57
2023/09/08 07:36:39;;;;;;;6.78;3.78;;;21.30;99.90;;;;;;5034045;28;20041;-54
2023/09/08 07:39:06;;;;;;;7.30;4.30;;;21.30;99.90;;;;;;5034691;28;20536;-55
2023/09/08 07:41:34;;;;;;;5.30;4.00;;;21.40;99.90;;;;;;5034789;28;20052;-58
2023/09/08 07:44:01;;;;;;;8.00;4.03;;;21.40;99.90;;;;;;5034591;28;20053;-52
2023/09/08 07:46:28;;;;;;;7.70;4.82;;;21.40;99.90;;;;;;5034279;28;20120;-54
2023/09/08 07:48:55;;;;;;;7.88;4.53;;;21.50;99.90;;;;;;5036042;28;20045;-55
2023/09/08 07:51:22;;;;;;;7.72;4.57;;;21.60;99.90;;;;;;5035161;28;20383;-55
2023/09/08 07:53:49;;;;;;;7.53;4.40;;;21.60;99.90;;;;;;5034171;28;20087;-56
2023/09/08 07:56:16;;;;;;;7.13;4.40;;;21.70;99.90;;;;;;5035120;28;20045;-59
2023/09/08 07:58:43;;;;;;;8.57;4.40;;;21.70;99.90;;;;;;5034726;28;20116;-56
2023/09/08 08:01:09;;;;;;;8.63;4.75;;;21.80;99.90;;;;;;5030591;28;20037;-57
2023/09/08 08:03:37;;;;;;;7.18;4.40;;;21.90;99.90;;;;;;5033643;28;20041;-58
2023/09/08 08:06:05;;;;;;;8.38;4.35;;;22.10;99.90;;;;;;5036349;28;20144;-57
2023/09/08 08:08:32;;;;;;;14.00;4.57;;;22.20;99.90;;;;;;5033389;28;20118;-59
2023/09/08 08:10:59;;;;;;;7.80;4.20;;;22.30;99.90;;;;;;5034325;28;20120;-53
2023/09/08 08:13:26;;;;;;;9.60;4.53;;;22.50;99.90;;;;;;5034400;28;20048;-57
2023/09/08 08:15:53;;;;;;;7.65;4.07;;;22.60;99.90;;;;;;5034121;28;20201;-55
2023/09/08 08:18:20;;;;;;;9.23;4.72;;;22.70;99.90;;;;;;5033287;28;20037;-57
2023/09/08 08:20:47;;;;;;;7.68;4.70;;;22.80;99.90;;;;;;5034177;28;20037;-59
2023/09/08 08:23:14;;;;;;;6.95;4.68;;;22.90;99.90;;;;;;5033193;28;20041;-56
2023/09/08 08:25:40;;;;;;;12.35;4.80;;;23.00;99.90;;;;;;5033787;28;20040;-55
2023/09/08 08:28:07;;;;;;;9.48;4.70;;;23.00;99.90;;;;;;5033852;28;20041;-54
2023/09/08 08:30:35;;;;;;;10.82;5.03;;;23.10;99.90;;;;;;5032556;28;20548;-57
2023/09/08 08:33:04;;;;;;;9.05;4.60;;;23.10;99.90;;;;;;5034140;28;20056;-58
2023/09/08 08:35:31;;;;;;;10.82;4.88;;;23.20;99.90;;;;;;5034517;28;20041;-56
2023/09/08 08:37:57;;;;;;;9.82;4.75;;;23.20;99.90;;;;;;5034448;28;20038;-55
2023/09/08 08:40:26;;;;;;;12.82;4.70;;;23.20;99.90;;;;;;5033990;28;20045;-57
2023/09/08 08:42:53;;;;;;;9.25;4.28;;;23.20;99.90;;;;;;5032919;28;20143;-53
2023/09/08 08:45:20;;;;;;;10.65;5.03;;;23.30;99.90;;;;;;5034290;28;20041;-54
2023/09/08 08:47:47;;;;;;;8.52;4.68;;;23.30;99.90;;;;;;5033034;28;20041;-58
2023/09/08 08:50:14;;;;;;;7.20;4.38;;;23.40;99.90;;;;;;5033179;28;20041;-56
2023/09/08 08:52:41;;;;;;;9.02;4.43;;;23.50;99.90;;;;;;5033279;28;20038;-56
2023/09/08 08:55:08;;;;;;;7.47;3.85;;;23.50;99.90;;;;;;5036667;28;20037;-55
2023/09/08 08:57:35;;;;;;;9.95;4.00;;;23.50;99.90;;;;;;5033820;28;20050;-55
2023/09/08 09:00:05;;;;;;;6.53;3.97;;;23.60;99.90;;;;;;5033936;28;20056;-58
2023/09/08 09:02:33;;;;;;;6.32;3.67;;;23.70;99.90;;;;;;5033744;28;20381;-57
2023/09/08 09:05:00;;;;;;;7.13;4.05;;;23.80;99.90;;;;;;5033137;28;20075;-56
2023/09/08 09:07:27;;;;;;;10.52;4.00;;;23.90;99.90;;;;;;5033592;28;20099;-58
2023/09/08 09:09:54;;;;;;;10.07;3.67;;;24.00;99.90;;;;;;5033822;28;20086;-55
2023/09/08 09:12:22;;;;;;;11.45;4.07;;;24.10;99.90;;;;;;5032989;28;20049;-57
2023/09/08 09:14:48;;;;;;;5.72;3.70;;;24.30;99.90;;;;;;5033883;28;20037;-60
2023/09/08 09:17:15;;;;;;;11.13;4.03;;;24.40;99.90;;;;;;5031405;28;20047;-52
2023/09/08 09:19:42;;;;;;;9.50;4.43;;;24.60;99.90;;;;;;5033574;28;20056;-55
2023/09/08 09:22:09;;;;;;;8.38;4.45;;;24.70;99.90;;;;;;5032834;28;20488;-49
2023/09/08 09:24:45;;;;;;;8.18;3.65;;;24.80;99.90;;;;;;5033690;28;20041;-49
2023/09/08 09:27:12;;;;;;;12.52;4.07;;;24.90;99.90;;;;;;5032428;28;20099;-55
2023/09/08 09:29:39;;;;;;;8.25;3.88;;;25.00;99.90;;;;;;5033666;28;20042;-52
2023/09/08 09:32:06;;;;;;;9.10;3.83;;;25.10;99.90;;;;;;5033346;28;20044;-54
2023/09/08 09:34:33;;;;;;;8.43;3.72;;;25.20;99.90;;;;;;5034038;28;20045;-56
2023/09/08 09:36:59;;;;;;;8.80;3.47;;;25.30;99.90;;;;;;5033950;28;20128;-52
2023/09/08 09:39:26;;;;;;;6.60;3.78;;;25.50;99.90;;;;;;5033286;28;20038;-53
2023/09/08 09:41:53;;;;;;;8.63;3.42;;;25.60;99.90;;;;;;5033566;28;20038;-55
2023/09/08 09:44:20;;;;;;;6.75;3.78;;;25.70;99.90;;;;;;5033670;28;20038;-54
2023/09/08 09:46:47;;;;;;;7.78;3.42;;;25.80;99.60;;;;;;5032288;28;20428;-53
2023/09/08 09:49:13;;;;;;;8.75;3.58;;;26.00;99.60;;;;;;5033781;28;20045;-50
2023/09/08 09:51:40;;;;;;;7.80;3.70;;;26.10;99.50;;;;;;5033311;28;20421;-56
2023/09/08 09:54:07;;;;;;;4.45;3.30;;;26.20;98.90;;;;;;5033062;28;20072;-54
2023/09/08 09:56:34;;;;;;;7.05;3.55;;;26.40;99.10;;;;;;5032838;28;20045;-56
2023/09/08 09:59:01;;;;;;;8.55;3.53;;;26.50;98.70;;;;;;5033415;28;20084;-58
2023/09/08 10:01:28;;;;;;;6.32;3.30;;;26.60;98.70;;;;;;5033128;28;20037;-59
2023/09/08 10:03:55;;;;;;;7.25;3.28;;;26.70;98.30;;;;;;5032952;28;20116;-58
2023/09/08 10:06:22;;;;;;;6.13;3.50;;;26.80;98.00;;;;;;5033230;28;20038;-54
2023/09/08 10:08:49;;;;;;;6.57;3.00;;;26.90;98.10;;;;;;5031705;28;20041;-55
2023/09/08 10:11:15;;;;;;;8.45;3.70;;;26.90;98.00;;;;;;5024045;28;20500;-52
2023/09/08 10:13:42;;;;;;;7.13;3.47;;;26.90;97.90;;;;;;5015741;28;20477;-57
2023/09/08 10:16:09;;;;;;;4.38;3.03;;;27.00;98.00;;;;;;5033333;28;20057;-58
2023/09/08 10:18:36;;;;;;;5.20;3.50;;;26.90;97.70;;;;;;5032494;28;20047;-53
2023/09/08 10:21:04;;;;;;;7.82;3.28;;;26.80;98.00;;;;;;5033350;28;20484;-61
2023/09/08 10:23:31;;;;;;;6.50;3.80;;;26.80;98.00;;;;;;5033325;28;20056;-50
2023/09/08 10:25:58;;;;;;;8.02;3.42;;;26.70;98.00;;;;;;5032802;28;20068;-60
2023/09/08 10:28:27;;;;;;;7.90;3.85;;;26.60;98.20;;;;;;5014096;28;20046;-59
2023/09/08 10:30:54;;;;;;;5.20;3.47;;;26.60;98.30;;;;;;5012287;28;20139;-56
2023/09/08 10:33:23;;;;;;;11.32;3.50;;;26.60;98.10;;;;;;5012151;28;20481;-55
2023/09/08 10:35:50;;;;;;;6.05;3.25;;;26.60;97.60;;;;;;5012053;28;20050;-59
2023/09/08 10:38:17;;;;;;;8.40;3.38;;;26.60;98.00;;;;;;5012960;28;20041;-54
2023/09/08 10:40:44;;;;;;;10.10;3.45;;;26.60;97.70;;;;;;5012342;28;20394;-57
2023/09/08 10:43:11;;;;;;;8.45;3.70;;;26.70;97.50;;;;;;5012341;28;20038;-53
2023/09/08 10:45:37;;;;;;;7.80;3.40;;;26.80;97.40;;;;;;5012325;28;20042;-58
2023/09/08 10:48:04;;;;;;;8.32;3.55;;;26.80;97.10;;;;;;5010522;28;20038;-59
2023/09/08 10:50:32;;;;;;;8.57;3.35;;;26.80;96.90;;;;;;5009782;28;20073;-60
2023/09/08 10:52:59;;;;;;;8.02;3.70;;;26.90;97.40;;;;;;5009938;28;20050;-58
2023/09/08 10:55:25;;;;;;;10.00;3.28;;;26.90;97.20;;;;;;5010625;28;20069;-59
2023/09/08 10:57:52;;;;;;;11.20;3.45;;;26.90;97.50;;;;;;5010223;28;20053;-58
2023/09/08 11:00:20;;;;;;;4.95;3.22;;;27.00;97.50;;;;;;5009252;28;20081;-60
2023/09/08 11:02:47;;;;;;;8.18;4.03;;;27.00;97.70;;;;;;5011304;28;20480;-59
2023/09/08 11:05:14;;;;;;;8.55;3.58;;;27.10;97.60;;;;;;5014727;28;20042;-55
2023/09/08 11:07:42;;;;;;;6.00;3.20;;;27.10;97.60;;;;;;5016696;28;20049;-58
2023/09/08 11:10:09;;;;;;;9.98;3.58;;;27.20;97.40;;;;;;5016360;28;20034;-57
2023/09/08 11:12:36;;;;;;;8.98;3.47;;;27.20;97.50;;;;;;5016842;28;20543;-58
2023/09/08 11:15:07;;;;;;;10.60;3.72;;;27.20;97.30;;;;;;5016253;28;20417;-54
2023/09/08 11:17:34;;;;;;;6.95;3.13;;;27.30;97.30;;;;;;5017054;28;20030;-54
2023/09/08 11:20:01;;;;;;;9.35;3.22;;;27.40;96.70;;;;;;5016801;28;20088;-57
2023/09/08 11:22:27;;;;;;;4.78;3.10;;;27.50;96.60;;;;;;5016402;28;20038;-58
2023/09/08 11:24:56;;;;;;;8.38;3.30;;;27.60;96.10;;;;;;5016472;28;20508;-58
2023/09/08 11:27:23;;;;;;;8.00;2.92;;;27.60;96.10;;;;;;5016301;28;20169;-58
2023/09/08 11:29:50;;;;;;;5.13;3.10;;;27.70;95.20;;;;;;5016361;28;20549;-54
2023/09/08 11:32:17;;;;;;;6.40;2.92;;;27.70;94.90;;;;;;5015914;28;20053;-60
2023/09/08 11:34:44;;;;;;;5.65;3.05;;;27.70;95.00;;;;;;5016259;28;20054;-58
2023/09/08 11:37:13;;;;;;;5.72;3.30;;;27.70;95.10;;;;;;5016102;28;20046;-56
2023/09/08 11:39:39;;;;;;;6.13;3.38;;;27.70;94.80;;;;;;5016436;28;20453;-58
2023/09/08 11:42:06;;;;;;;8.93;3.45;;;27.70;94.80;;;;;;5016003;28;20049;-57
2023/09/08 11:44:33;;;;;;;9.00;3.60;;;27.80;94.60;;;;;;5016475;28;20072;-54
2023/09/08 11:47:00;;;;;;;7.55;3.20;;;27.80;94.90;;;;;;5015890;28;20041;-58
2023/09/08 11:49:27;;;;;;;6.57;2.97;;;28.00;95.40;;;;;;5015838;28;20041;-56
2023/09/08 11:51:54;;;;;;;7.53;3.58;;;28.00;95.20;;;;;;5015131;28;20046;-60
2023/09/08 11:54:21;;;;;;;5.15;3.33;;;28.10;94.70;;;;;;5015926;28;20045;-59
2023/09/08 11:56:47;;;;;;;6.13;3.65;;;28.10;95.20;;;;;;5015405;28;20056;-58
2023/09/08 11:59:14;;;;;;;7.28;3.40;;;28.20;95.30;;;;;;5016074;28;20120;-58
2023/09/08 12:01:41;;;;;;;5.40;3.55;;;28.20;94.90;;;;;;5015988;28;20377;-58
2023/09/08 12:04:08;;;;;;;6.38;3.40;;;28.30;94.70;;;;;;5015900;28;20034;-57
2023/09/08 12:06:35;;;;;;;7.05;2.83;;;28.30;94.90;;;;;;5015691;28;20072;-57
2023/09/08 12:09:05;;;;;;;9.88;3.20;;;28.30;94.50;;;;;;5015601;28;20153;-53
2023/09/08 12:11:32;;;;;;;8.52;3.22;;;28.40;94.40;;;;;;5016133;28;20556;-58
2023/09/08 12:13:59;;;;;;;7.38;2.95;;;28.50;94.40;;;;;;5016067;28;20038;-57
2023/09/08 12:16:26;;;;;;;8.20;3.25;;;28.60;94.60;;;;;;5014357;28;20092;-58
2023/09/08 12:18:53;;;;;;;5.35;3.15;;;28.70;93.90;;;;;;5015259;28;20509;-59
2023/09/08 12:21:20;;;;;;;7.07;3.10;;;28.80;93.90;;;;;;5015531;28;20046;-56
2023/09/08 12:23:46;;;;;;;6.60;3.10;;;28.80;94.20;;;;;;5015031;28;20517;-57
2023/09/08 12:26:13;;;;;;;7.32;3.55;;;28.80;94.00;;;;;;5015566;28;20046;-59
2023/09/08 12:28:40;;;;;;;6.20;3.38;;;28.90;94.10;;;;;;5015346;28;20042;-57
2023/09/08 12:31:07;;;;;;;9.95;3.33;;;29.00;94.00;;;;;;5015197;28;20080;-58
2023/09/08 12:33:34;;;;;;;7.03;3.10;;;29.00;94.10;;;;;;5014183;28;20092;-57
2023/09/08 12:36:00;;;;;;;6.90;3.45;;;29.10;94.10;;;;;;5015354;28;20053;-55
2023/09/08 12:38:27;;;;;;;8.00;3.42;;;29.20;93.90;;;;;;5015133;28;20042;-60
2023/09/08 12:40:54;;;;;;;5.13;3.33;;;29.20;93.80;;;;;;5014728;28;20038;-57
2023/09/08 12:43:21;;;;;;;5.57;3.40;;;29.30;93.50;;;;;;5015451;28;20459;-60
2023/09/08 12:45:54;;;;;;;6.38;2.95;;;29.40;93.30;;;;;;5015324;28;20042;-61